Time;durP1;ratioP1;P1;durP2;ratioP2;P2;SDS_P1;SDS_P2;PMS_P1;PMS_P2;Temp;Humidity;BMP_temperature;BMP_pressure;BME280_temperature;BME280_humidity;BME280_pressure;Samples;Min_cycle;Max_cycle;Signal;HPM_P1;HPM_P2
2023/07/25 00:02:10;;;;;;;3.75;3.35;;;;;;;18.68;73.80;98429.28;5085864;28;20082;-79
2023/07/25 00:04:57;;;;;;;4.43;3.50;;;;;;;18.63;74.35;98439.13;5084808;28;20052;-78
2023/07/25 00:07:41;;;;;;;5.97;3.10;;;;;;;18.58;74.19;98423.94;5083887;28;20059;-79
2023/07/25 00:10:26;;;;;;;3.60;3.30;;;;;;;18.50;74.38;98427.91;5090668;28;20040;-79
2023/07/25 00:13:10;;;;;;;7.15;3.35;;;;;;;18.65;74.70;98435.13;5086933;28;20101;-80
2023/07/25 00:15:54;;;;;;;4.07;3.20;;;;;;;18.61;74.40;98436.72;5084980;28;20097;-79
2023/07/25 00:18:38;;;;;;;3.22;3.00;;;;;;;18.59;74.40;98444.16;5081190;28;20137;-80
2023/07/25 00:21:24;;;;;;;5.15;3.47;;;;;;;18.52;75.00;98435.63;5087662;28;20059;-81
2023/07/25 00:24:08;;;;;;;5.90;3.60;;;;;;;18.47;75.00;98422.31;5083782;28;20471;-80
2023/07/25 00:26:52;;;;;;;4.95;3.03;;;;;;;18.42;75.46;98434.53;5087380;28;20043;-80
2023/07/25 00:29:36;;;;;;;5.32;3.17;;;;;;;18.37;75.83;98429.19;5083560;28;20075;-79
2023/07/25 00:32:20;;;;;;;4.68;3.60;;;;;;;18.48;75.69;98439.88;5085185;28;20098;-81
2023/07/25 00:35:05;;;;;;;5.60;3.10;;;;;;;18.39;76.21;98435.06;5083056;28;20051;-80
2023/07/25 00:37:49;;;;;;;4.50;3.22;;;;;;;18.45;76.25;98429.75;5083994;28;20043;-80
2023/07/25 00:40:38;;;;;;;3.45;3.15;;;;;;;18.61;75.85;98426.06;5079303;28;20093;-80
2023/07/25 00:43:22;;;;;;;5.00;3.05;;;;;;;18.81;75.18;98429.84;5080119;28;20583;-80
2023/07/25 00:46:06;;;;;;;7.93;3.72;;;;;;;18.75;75.64;98425.56;5083092;28;20154;-80
2023/07/25 00:48:50;;;;;;;5.68;3.10;;;;;;;18.66;75.80;98420.75;5081233;28;20524;-80
2023/07/25 00:51:35;;;;;;;4.38;3.13;;;;;;;18.85;74.98;98420.25;5083186;28;20130;-81
2023/07/25 00:54:19;;;;;;;6.72;3.15;;;;;;;18.77;75.35;98410.16;5080036;28;20047;-81
2023/07/25 00:57:03;;;;;;;6.07;2.83;;;;;;;18.62;75.69;98410.94;5086442;28;20059;-80
2023/07/25 00:59:48;;;;;;;4.15;3.28;;;;;;;18.64;75.49;98414.13;5078041;28;20050;-80
2023/07/25 01:02:32;;;;;;;7.00;3.38;;;;;;;18.66;75.81;98407.47;5085228;28;20047;-81
2023/07/25 01:05:16;;;;;;;5.70;3.10;;;;;;;18.58;75.60;98415.97;5078824;28;20129;-80
2023/07/25 01:08:01;;;;;;;7.13;3.67;;;;;;;18.48;75.76;98414.09;5081421;28;20421;-80
2023/07/25 01:10:45;;;;;;;6.80;3.13;;;;;;;18.59;75.80;98414.91;5084213;28;20054;-80
2023/07/25 01:13:29;;;;;;;5.97;3.08;;;;;;;18.44;75.83;98410.38;5078703;28;20047;-80
2023/07/25 01:16:17;;;;;;;4.22;3.65;;;;;;;18.35;76.03;98415.38;5083152;28;20050;-80
2023/07/25 01:19:01;;;;;;;4.93;2.55;;;;;;;18.45;74.92;98405.84;5084090;28;20051;-80
2023/07/25 01:21:45;;;;;;;7.00;3.20;;;;;;;18.34;75.29;98412.97;5080972;28;20405;-80
2023/07/25 01:24:29;;;;;;;4.63;3.00;;;;;;;18.46;75.27;98405.59;5086455;28;20052;-80
2023/07/25 01:27:14;;;;;;;6.05;3.20;;;;;;;18.57;75.35;98403.75;5081426;28;20043;-80
2023/07/25 01:29:58;;;;;;;4.97;2.80;;;;;;;18.36;75.41;98398.38;5081893;28;20505;-79
2023/07/25 01:32:42;;;;;;;8.10;3.00;;;;;;;18.45;75.65;98409.31;5084718;28;20555;-79
2023/07/25 01:35:27;;;;;;;7.22;3.10;;;;;;;18.36;76.01;98409.00;5084805;28;20050;-80
2023/07/25 01:38:11;;;;;;;9.05;3.20;;;;;;;18.54;75.62;98406.94;5083389;28;20047;-80
2023/07/25 01:40:55;;;;;;;4.15;3.00;;;;;;;18.48;75.79;98397.38;5081751;28;20133;-81
2023/07/25 01:43:39;;;;;;;8.43;3.08;;;;;;;18.66;75.51;98409.34;5079024;28;20088;-81
2023/07/25 01:46:23;;;;;;;5.10;2.70;;;;;;;18.35;75.84;98412.72;5083798;28;20414;-80
2023/07/25 01:49:13;;;;;;;7.72;3.47;;;;;;;18.44;76.18;98414.88;5080392;28;20126;-81
2023/07/25 01:51:57;;;;;;;5.80;3.25;;;;;;;18.26;76.37;98411.63;5080456;28;20509;-81
2023/07/25 01:54:40;;;;;;;5.25;3.00;;;;;;;18.31;76.52;98414.31;5082048;28;20513;-80
2023/07/25 01:57:24;;;;;;;4.30;2.75;;;;;;;18.51;75.95;98412.78;5083315;28;20070;-80
2023/07/25 02:00:09;;;;;;;5.97;3.15;;;;;;;18.38;76.30;98406.88;5081527;28;20081;-79
2023/07/25 02:02:53;;;;;;;7.38;2.75;;;;;;;18.22;76.57;98416.69;5080713;28;20142;-79
2023/07/25 02:05:37;;;;;;;3.50;2.70;;;;;;;18.18;76.82;98399.66;5080293;28;20454;-80
2023/07/25 02:08:21;;;;;;;7.55;3.17;;;;;;;18.18;76.92;98412.13;5080324;28;20112;-80
2023/07/25 02:11:05;;;;;;;7.95;3.00;;;;;;;18.17;76.73;98413.19;5082406;28;20101;-80
2023/07/25 02:13:49;;;;;;;6.03;3.17;;;;;;;18.14;76.89;98406.53;5080220;28;20083;-80
2023/07/25 02:16:36;;;;;;;5.00;3.00;;;;;;;18.17;77.10;98410.53;5083977;28;20047;-80
2023/07/25 02:19:20;;;;;;;6.35;2.72;;;;;;;18.27;76.49;98408.72;5077299;28;20394;-79
2023/07/25 02:22:05;;;;;;;3.97;2.85;;;;;;;18.38;76.54;98420.16;5079857;28;20040;-79
2023/07/25 02:24:49;;;;;;;5.65;2.90;;;;;;;18.34;76.68;98410.31;5081822;28;20085;-79
2023/07/25 02:27:33;;;;;;;6.68;2.92;;;;;;;18.35;76.69;98412.72;5080158;28;20420;-80
2023/07/25 02:30:17;;;;;;;7.28;3.15;;;;;;;18.30;76.88;98411.91;5081526;28;20036;-79
2023/07/25 02:33:01;;;;;;;6.32;2.88;;;;;;;18.17;76.98;98413.19;5077727;28;20083;-80
2023/07/25 02:35:45;;;;;;;3.78;3.03;;;;;;;17.97;77.75;98412.81;5081956;28;20043;-80
2023/07/25 02:38:29;;;;;;;6.07;3.03;;;;;;;18.02;77.33;98404.09;5084068;28;20043;-79
2023/07/25 02:41:13;;;;;;;3.17;2.72;;;;;;;18.08;77.31;98404.94;5079026;28;20039;-80
2023/07/25 02:43:57;;;;;;;4.63;3.10;;;;;;;17.89;77.85;98407.22;5077513;28;20504;-80
2023/07/25 02:46:41;;;;;;;4.13;3.08;;;;;;;17.78;77.95;98396.53;5084008;28;20516;-79
2023/07/25 02:49:25;;;;;;;6.63;3.10;;;;;;;17.69;78.21;98398.09;5079714;28;20127;-80
2023/07/25 02:52:09;;;;;;;4.55;3.20;;;;;;;17.61;78.29;98393.25;5080395;28;20562;-80
2023/07/25 02:54:53;;;;;;;6.50;3.45;;;;;;;17.60;78.51;98400.44;5079679;28;20035;-80
2023/07/25 02:57:37;;;;;;;4.68;3.22;;;;;;;17.36;79.40;98395.47;5074380;28;20044;-80
2023/07/25 03:00:21;;;;;;;5.00;3.30;;;;;;;17.27;79.47;98392.50;5081682;28;20124;-79
2023/07/25 03:03:05;;;;;;;6.80;3.30;;;;;;;17.14;81.15;98387.66;5083562;28;20627;-81
2023/07/25 03:05:49;;;;;;;4.22;3.30;;;;;;;17.21;81.40;98388.22;5081573;28;20065;-81
2023/07/25 03:08:33;;;;;;;9.38;3.83;;;;;;;17.28;81.29;98386.13;5079611;28;20059;-79
2023/07/25 03:11:17;;;;;;;6.68;4.03;;;;;;;17.40;80.95;98385.97;5081973;28;20052;-80
2023/07/25 03:14:01;;;;;;;9.35;3.50;;;;;;;17.24;81.61;98381.63;5081861;28;20100;-81
2023/07/25 03:16:45;;;;;;;6.63;3.63;;;;;;;17.27;81.62;98391.72;5081552;28;20093;-80
2023/07/25 03:19:29;;;;;;;5.25;3.03;;;;;;;17.23;81.91;98385.31;5076770;28;20405;-80
2023/07/25 03:22:13;;;;;;;6.53;3.30;;;;;;;17.16;82.16;98388.19;5081266;28;20043;-81
2023/07/25 03:24:57;;;;;;;6.75;3.17;;;;;;;17.11;82.82;98388.16;5079231;28;20039;-81
2023/07/25 03:27:41;;;;;;;4.47;3.00;;;;;;;17.26;81.97;98390.13;5083710;28;20466;-81
2023/07/25 03:30:24;;;;;;;5.63;2.92;;;;;;;17.23;81.88;98380.81;5077208;28;20398;-81
2023/07/25 03:33:08;;;;;;;4.35;2.95;;;;;;;17.15;82.08;98383.94;5081996;28;20042;-78
2023/07/25 03:35:53;;;;;;;4.93;3.30;;;;;;;17.10;82.14;98386.56;5079430;28;20047;-79
2023/07/25 03:38:37;;;;;;;5.38;2.90;;;;;;;17.10;82.30;98390.00;5082205;28;20042;-78
2023/07/25 03:41:21;;;;;;;5.72;3.17;;;;;;;17.12;82.24;98390.53;5082447;28;20402;-79
2023/07/25 03:44:05;;;;;;;5.03;3.13;;;;;;;17.06;82.46;98394.22;5080318;28;20047;-79
2023/07/25 03:46:49;;;;;;;6.43;3.10;;;;;;;17.06;82.45;98394.22;5081427;28;20067;-80
2023/07/25 03:49:33;;;;;;;7.20;2.90;;;;;;;17.09;82.68;98391.06;5086687;28;20059;-79
2023/07/25 03:52:17;;;;;;;5.65;3.10;;;;;;;17.16;82.42;98388.19;5079755;28;20560;-79
2023/07/25 03:55:02;;;;;;;6.70;2.70;;;;;;;17.11;82.45;98388.16;5080953;28;20093;-79
2023/07/25 03:57:45;;;;;;;9.02;4.07;;;;;;;17.01;82.37;98388.06;5080779;28;20043;-78
2023/07/25 04:00:29;;;;;;;6.68;3.05;;;;;;;17.04;82.40;98382.25;5076222;28;20071;-79
2023/07/25 04:03:13;;;;;;;5.20;3.10;;;;;;;16.93;82.78;98382.16;5081761;28;20509;-79
2023/07/25 04:05:57;;;;;;;5.32;3.00;;;;;;;16.85;82.78;98380.75;5084470;28;20085;-79
2023/07/25 04:08:41;;;;;;;7.00;3.53;;;;;;;17.04;82.51;98383.06;5087977;28;20069;-79
2023/07/25 04:11:26;;;;;;;5.28;3.30;;;;;;;17.06;82.42;98388.91;5079952;28;20569;-79
2023/07/25 04:14:11;;;;;;;9.75;3.95;;;;;;;17.13;82.71;98386.06;5082804;28;20047;-79
2023/07/25 04:16:54;;;;;;;;;;;;;;;17.09;82.86;98390.22;5081906;28;20532;-79
2023/07/25 04:19:38;;;;;;;8.43;3.78;;;;;;;17.15;82.88;98386.59;5086420;28;19930;-79
2023/07/25 04:22:22;;;;;;;5.70;3.40;;;;;;;17.28;82.81;98390.66;5083085;28;20098;-79
2023/07/25 04:25:06;;;;;;;6.05;3.50;;;;;;;17.48;82.00;98395.28;5087441;28;20532;-79
2023/07/25 04:27:51;;;;;;;6.97;3.65;;;;;;;17.68;81.02;98388.50;5089575;28;20046;-79
2023/07/25 04:30:35;;;;;;;4.65;2.95;;;;;;;17.74;80.96;98395.47;5087144;28;20039;-79
2023/07/25 04:33:19;;;;;;;4.38;3.00;;;;;;;17.77;80.99;98389.63;5083330;28;20043;-79
2023/07/25 04:36:03;;;;;;;9.55;3.40;;;;;;;17.89;80.76;98391.28;5087611;28;20032;-79
2023/07/25 04:38:46;;;;;;;4.78;2.75;;;;;;;17.79;80.08;98390.16;5081644;28;20042;-78
2023/07/25 04:41:30;;;;;;;6.43;2.88;;;;;;;17.95;80.25;98388.38;5083385;28;20097;-78
2023/07/25 04:44:14;;;;;;;5.72;2.45;;;;;;;17.99;79.80;98380.69;5081801;28;20085;-79
2023/07/25 04:46:58;;;;;;;5.15;3.03;;;;;;;18.02;79.98;98390.81;5081429;28;20043;-78
2023/07/25 04:49:42;;;;;;;4.75;2.50;;;;;;;18.25;79.29;98383.47;5084681;28;20047;-78
2023/07/25 04:52:27;;;;;;;4.15;2.60;;;;;;;18.04;79.87;98388.69;5086791;28;20171;-79
2023/07/25 04:55:11;;;;;;;4.50;2.47;;;;;;;17.81;80.62;98390.69;5080265;28;20105;-78
2023/07/25 04:57:54;;;;;;;4.55;2.80;;;;;;;18.09;80.01;98396.72;5081400;28;20075;-79
2023/07/25 05:00:38;;;;;;;3.70;2.45;;;;;;;18.36;79.55;98392.25;5081497;28;20051;-78
2023/07/25 05:03:24;;;;;;;4.35;2.88;;;;;;;18.48;78.95;98392.03;5082359;28;20043;-78
2023/07/25 05:06:08;;;;;;;4.72;2.65;;;;;;;18.49;78.99;98391.75;5082599;28;20039;-79
2023/07/25 05:08:52;;;;;;;3.78;2.63;;;;;;;18.56;79.58;98399.50;5082481;28;20402;-79
2023/07/25 05:11:36;;;;;;;7.32;2.80;;;;;;;18.57;79.25;98390.47;5081987;28;20093;-78
2023/07/25 05:14:20;;;;;;;5.85;2.80;;;;;;;18.70;78.57;98384.63;5084664;28;20397;-79
2023/07/25 05:17:04;;;;;;;7.65;2.72;;;;;;;18.88;79.20;98382.53;5082166;28;20055;-79
2023/07/25 05:19:48;;;;;;;8.07;2.90;;;;;;;18.01;80.62;98386.53;5077414;28;20035;-79
2023/07/25 05:22:32;;;;;;;6.43;2.88;;;;;;;18.60;79.77;98383.81;5080229;28;20142;-79
2023/07/25 05:25:16;;;;;;;4.25;2.45;;;;;;;18.85;79.27;98393.66;5080634;28;20650;-79
2023/07/25 05:28:00;;;;;;;5.97;2.70;;;;;;;19.53;77.53;98407.75;5082029;28;20047;-80
2023/07/25 05:30:44;;;;;;;5.38;2.78;;;;;;;19.68;77.11;98401.63;5087231;28;20100;-80
2023/07/25 05:33:28;;;;;;;5.88;2.50;;;;;;;19.34;77.05;98396.91;5077156;28;20047;-80
2023/07/25 05:36:11;;;;;;;5.35;2.20;;;;;;;18.97;77.84;98404.84;5085074;28;20034;-81
2023/07/25 05:38:55;;;;;;;2.35;2.03;;;;;;;19.15;77.48;98408.09;5084373;28;20094;-79
2023/07/25 05:41:39;;;;;;;2.78;2.03;;;;;;;19.30;77.45;98407.28;5083227;28;20063;-79
2023/07/25 05:44:23;;;;;;;5.28;2.05;;;;;;;19.29;77.56;98407.56;5084185;28;20168;-79
2023/07/25 05:47:07;;;;;;;6.53;2.10;;;;;;;19.73;76.79;98412.25;5079274;28;20043;-79
2023/07/25 05:49:52;;;;;;;5.32;2.30;;;;;;;19.57;77.25;98411.50;5079335;28;20039;-79
2023/07/25 05:52:36;;;;;;;4.32;2.35;;;;;;;19.74;76.37;98408.53;5087009;28;20468;-79
2023/07/25 05:55:20;;;;;;;5.32;2.10;;;;;;;19.79;76.34;98410.38;5081821;28;20071;-79
2023/07/25 05:58:04;;;;;;;3.42;2.30;;;;;;;19.91;76.07;98404.75;5081605;28;20165;-80
2023/07/25 06:00:48;;;;;;;4.82;2.70;;;;;;;19.93;75.46;98410.63;5086487;28;20042;-79
2023/07/25 06:03:32;;;;;;;3.28;2.20;;;;;;;19.63;75.66;98401.63;5076623;28;20093;-79
2023/07/25 06:06:16;;;;;;;2.92;2.35;;;;;;;20.15;75.73;98404.16;5081977;28;20052;-79
2023/07/25 06:09:00;;;;;;;4.82;2.47;;;;;;;19.86;76.12;98405.56;5083451;28;20537;-79
2023/07/25 06:11:44;;;;;;;5.00;3.45;;;;;;;19.88;76.17;98414.06;5080421;28;20097;-79
2023/07/25 06:14:28;;;;;;;3.15;2.45;;;;;;;19.89;76.36;98409.56;5080803;28;20069;-79
2023/07/25 06:17:12;;;;;;;3.85;2.58;;;;;;;19.51;76.91;98417.88;5083049;28;20428;-79
2023/07/25 06:19:56;;;;;;;9.57;3.10;;;;;;;19.53;77.74;98407.75;5085735;28;20044;-82
2023/07/25 06:22:40;;;;;;;6.97;2.90;;;;;;;19.55;77.48;98408.28;5081766;28;20052;-81
2023/07/25 06:25:24;;;;;;;4.95;3.13;;;;;;;19.81;76.75;98417.03;5080097;28;20398;-79
2023/07/25 06:28:08;;;;;;;4.22;2.60;;;;;;;19.74;76.75;98413.84;5079099;28;20413;-81
2023/07/25 06:30:52;;;;;;;6.75;2.90;;;;;;;20.23;76.28;98416.91;5081175;28;20154;-79
2023/07/25 06:33:36;;;;;;;5.38;2.65;;;;;;;20.64;75.18;98422.03;5078750;28;20044;-79
2023/07/25 06:36:20;;;;;;;4.85;2.83;;;;;;;20.67;75.06;98420.66;5080464;28;20434;-82
2023/07/25 06:39:04;;;;;;;4.35;2.60;;;;;;;21.15;74.28;98425.41;5087793;28;20466;-79
2023/07/25 06:41:48;;;;;;;5.35;2.55;;;;;;;20.94;73.69;98420.25;5084341;28;20104;-79
2023/07/25 06:44:31;;;;;;;;;;;;;;;20.63;73.64;98420.41;5077709;28;20044;-79
2023/07/25 06:47:15;;;;;;;5.32;2.92;;;;;;;21.21;72.99;98418.19;5085103;28;19980;-81
2023/07/25 06:49:59;;;;;;;3.80;2.10;;;;;;;20.74;74.24;98412.38;5079105;28;20062;-79
2023/07/25 06:52:43;;;;;;;2.90;2.05;;;;;;;20.60;73.71;98415.63;5081430;28;20059;-79
2023/07/25 06:55:27;;;;;;;;;;;;;;;20.96;74.26;98412.75;5080109;28;20042;-80
2023/07/25 06:58:11;;;;;;;7.55;2.65;;;;;;;21.06;73.98;98411.09;5082417;28;19962;-79
2023/07/25 07:00:55;;;;;;;5.03;2.60;;;;;;;20.86;74.02;98410.19;5078514;28;20521;-79
2023/07/25 07:03:39;;;;;;;6.55;2.65;;;;;;;20.42;75.13;98411.75;5082222;28;20043;-78
2023/07/25 07:06:23;;;;;;;6.97;3.25;;;;;;;20.38;75.03;98411.50;5076694;28;20101;-81
2023/07/25 07:09:07;;;;;;;4.28;3.10;;;;;;;20.52;74.81;98418.91;5083392;28;20039;-80
2023/07/25 07:11:51;;;;;;;5.13;3.45;;;;;;;20.61;74.15;98419.13;5077643;28;20035;-78
2023/07/25 07:14:35;;;;;;;4.90;3.15;;;;;;;20.39;73.98;98420.31;5079543;28;20461;-81
2023/07/25 07:17:19;;;;;;;5.25;3.30;;;;;;;20.68;73.32;98417.75;5074916;28;20538;-81
2023/07/25 07:20:04;;;;;;;6.10;3.22;;;;;;;20.84;72.86;98420.34;5078875;28;20147;-81
2023/07/25 07:22:48;;;;;;;5.97;3.80;;;;;;;20.83;73.02;98419.53;5081262;28;20039;-80
2023/07/25 07:25:36;;;;;;;8.15;4.00;;;;;;;20.89;72.58;98422.16;5077943;28;20039;-80
2023/07/25 07:28:20;;;;;;;4.78;4.28;;;;;;;20.33;72.89;98432.03;5078965;28;20118;-80
2023/07/25 07:31:05;;;;;;;6.03;4.53;;;;;;;20.67;73.14;98436.66;5082191;28;20121;-80
2023/07/25 07:33:49;;;;;;;6.45;4.85;;;;;;;20.05;74.78;98432.44;5075142;28;20039;-80
2023/07/25 07:36:33;;;;;;;5.38;4.82;;;;;;;20.91;73.58;98425.34;5078004;28;20097;-79
2023/07/25 07:39:17;;;;;;;4.97;4.47;;;;;;;20.90;72.76;98424.56;5080368;28;20120;-81
2023/07/25 07:42:01;;;;;;;4.95;4.45;;;;;;;21.27;72.01;98427.72;5077877;28;20078;-81
2023/07/25 07:44:46;;;;;;;3.97;3.60;;;;;;;20.85;69.91;98432.59;5083604;28;20039;-81
2023/07/25 07:47:30;;;;;;;4.55;3.20;;;;;;;21.09;69.63;98429.22;5087998;28;20044;-80
2023/07/25 07:50:15;;;;;;;3.53;3.22;;;;;;;20.39;69.74;98425.63;5079554;28;20088;-80
2023/07/25 07:52:59;;;;;;;3.67;3.20;;;;;;;20.71;70.58;98435.03;5096289;28;20098;-81
2023/07/25 07:55:46;;;;;;;8.93;3.70;;;;;;;20.54;70.40;98438.06;5080838;28;20153;-80
2023/07/25 07:58:30;;;;;;;3.40;3.00;;;;;;;20.64;70.51;98431.88;5082608;28;20402;-80
2023/07/25 08:01:15;;;;;;;3.90;2.65;;;;;;;21.16;69.81;98444.91;5080057;28;20129;-83
2023/07/25 08:03:59;;;;;;;3.22;2.60;;;;;;;20.98;70.35;98436.50;5080149;28;20446;-82
2023/07/25 08:06:43;;;;;;;11.88;3.20;;;;;;;21.01;70.07;98437.81;5083758;28;20063;-82
2023/07/25 08:09:27;;;;;;;3.75;2.60;;;;;;;20.95;69.86;98437.84;5080230;28;20161;-82
2023/07/25 08:12:11;;;;;;;5.22;2.63;;;;;;;20.63;70.99;98441.75;5086553;28;20043;-82
2023/07/25 08:14:55;;;;;;;4.47;2.40;;;;;;;20.89;70.14;98430.97;5084014;28;20050;-81
2023/07/25 08:17:40;;;;;;;4.15;2.33;;;;;;;21.17;69.41;98444.63;5084524;28;20043;-81
2023/07/25 08:20:24;;;;;;;3.08;2.50;;;;;;;21.28;68.92;98437.31;5077708;28;20085;-81
2023/07/25 08:23:07;;;;;;;4.25;2.60;;;;;;;21.45;68.57;98449.47;5082937;28;20039;-81
2023/07/25 08:25:54;;;;;;;2.70;2.50;;;;;;;21.31;68.43;98460.00;5086691;28;20039;-81
2023/07/25 08:28:38;;;;;;;5.18;2.25;;;;;;;21.32;68.50;98456.25;5077882;28;20612;-81
2023/07/25 08:31:22;;;;;;;2.38;2.17;;;;;;;22.13;66.80;98457.63;5080238;28;20417;-81
2023/07/25 08:34:06;;;;;;;5.05;2.30;;;;;;;22.18;67.23;98455.69;5084906;28;20046;-81
2023/07/25 08:36:55;;;;;;;3.17;1.92;;;;;;;21.93;66.36;98454.09;5079359;28;20051;-81
2023/07/25 08:39:39;;;;;;;2.95;2.25;;;;;;;22.44;65.33;98451.91;5079982;28;20130;-82
2023/07/25 08:42:31;;;;;;;2.03;1.80;;;;;;;22.26;64.98;98452.38;5080364;28;20459;-81
2023/07/25 08:45:19;;;;;;;3.97;2.45;;;;;;;22.21;64.72;98449.75;5084044;28;20438;-81
2023/07/25 08:48:04;;;;;;;3.97;2.10;;;;;;;21.49;64.51;98456.63;5079004;28;20225;-81
2023/07/25 08:50:52;;;;;;;3.22;2.10;;;;;;;22.11;64.17;98448.00;5083707;28;20500;-80
2023/07/25 08:53:42;;;;;;;3.63;2.25;;;;;;;21.90;64.99;98457.34;5080350;28;20509;-81
2023/07/25 08:56:27;;;;;;;3.92;2.30;;;;;;;22.53;64.74;98467.03;5084171;28;20092;-81
2023/07/25 08:59:12;;;;;;;2.90;2.55;;;;;;;22.10;64.66;98462.44;5084826;28;20452;-82
2023/07/25 09:01:57;;;;;;;3.17;2.40;;;;;;;21.89;65.25;98458.41;5082150;28;20079;-80
2023/07/25 09:04:43;;;;;;;5.32;2.50;;;;;;;22.35;64.28;98454.41;5076378;28;20097;-80
2023/07/25 09:07:27;;;;;;;3.65;2.25;;;;;;;23.09;63.59;98455.81;5076716;28;20563;-80
2023/07/25 09:10:11;;;;;;;4.72;2.50;;;;;;;23.34;63.47;98456.50;5075941;28;20506;-79
2023/07/25 09:12:55;;;;;;;3.33;2.45;;;;;;;23.77;63.02;98450.91;5079185;28;20559;-79
2023/07/25 09:15:39;;;;;;;4.40;2.60;;;;;;;24.14;62.34;98444.91;5079980;28;20046;-79
2023/07/25 09:18:23;;;;;;;4.53;2.40;;;;;;;23.88;61.23;98442.69;5084639;28;20166;-80
2023/07/25 09:21:08;;;;;;;2.60;2.40;;;;;;;23.60;60.60;98453.41;5088988;28;20505;-79
2023/07/25 09:23:57;;;;;;;4.97;2.75;;;;;;;23.59;59.76;98457.19;5080996;28;20038;-80
2023/07/25 09:26:48;;;;;;;2.92;2.60;;;;;;;22.33;60.70;98461.94;5078343;28;20078;-79
2023/07/25 09:29:36;;;;;;;2.80;2.17;;;;;;;22.92;59.36;98456.34;5082563;28;20051;-81
2023/07/25 09:32:26;;;;;;;3.75;2.70;;;;;;;22.49;58.68;98449.19;5083717;28;20078;-80
2023/07/25 09:35:11;;;;;;;5.35;2.50;;;;;;;22.99;57.95;98455.97;5082295;28;20166;-79
2023/07/25 09:37:55;;;;;;;3.92;2.50;;;;;;;22.80;58.15;98454.13;5085851;28;20058;-79
2023/07/25 09:40:39;;;;;;;3.38;2.83;;;;;;;23.28;57.31;98457.69;5078440;28;20042;-80
2023/07/25 09:43:27;;;;;;;3.28;2.70;;;;;;;23.30;56.64;98455.50;5079471;28;20054;-79
2023/07/25 09:46:12;;;;;;;4.13;2.42;;;;;;;23.89;57.51;98465.72;5079031;28;20047;-80
2023/07/25 09:48:56;;;;;;;3.13;2.30;;;;;;;23.39;56.50;98459.13;5079269;28;20043;-80
2023/07/25 09:51:56;;;;;;;4.68;2.95;;;;;;;23.58;57.48;98456.38;5082404;28;20047;-79
2023/07/25 09:54:40;;;;;;;2.95;2.50;;;;;;;23.23;56.96;98456.66;5084075;28;20123;-79
2023/07/25 09:57:29;;;;;;;2.80;2.60;;;;;;;23.03;56.99;98457.78;5081552;28;20436;-80
2023/07/25 10:00:13;;;;;;;4.50;2.55;;;;;;;24.32;55.97;98456.63;5080624;28;20159;-80
2023/07/25 10:03:01;;;;;;;3.55;2.42;;;;;;;24.79;53.55;98469.88;5080961;28;20093;-79
2023/07/25 10:05:45;;;;;;;3.05;2.33;;;;;;;24.16;53.46;98459.59;5080681;28;20564;-80
2023/07/25 10:08:30;;;;;;;3.60;2.60;;;;;;;23.95;53.93;98459.16;5075794;28;20401;-80
2023/07/25 10:11:15;;;;;;;5.13;2.35;;;;;;;24.21;54.12;98466.75;5076771;28;20035;-79
2023/07/25 10:14:00;;;;;;;4.32;3.15;;;;;;;24.54;55.50;98463.91;5081566;28;20128;-79
2023/07/25 10:16:46;;;;;;;4.88;2.85;;;;;;;24.13;54.73;98470.13;5082071;28;20397;-79
2023/07/25 10:19:49;;;;;;;4.25;3.10;;;;;;;24.27;52.46;98472.78;5077571;28;20036;-79
2023/07/25 10:22:42;;;;;;;3.00;2.70;;;;;;;25.00;51.35;98469.38;5080143;28;20499;-79
2023/07/25 10:25:28;;;;;;;3.07;2.50;;;;;;;25.51;51.17;98468.16;5077791;28;20082;-78
2023/07/25 10:28:12;;;;;;;3.33;2.80;;;;;;;25.84;51.19;98463.56;5080786;28;20260;-79
2023/07/25 10:30:57;;;;;;;2.90;2.70;;;;;;;25.43;50.68;98460.81;5082182;28;20177;-79
2023/07/25 10:33:42;;;;;;;4.78;2.90;;;;;;;24.70;52.06;98468.94;5079035;28;20552;-79
2023/07/25 10:36:26;;;;;;;2.75;2.55;;;;;;;25.60;50.97;98460.13;5074641;28;20038;-79
2023/07/25 10:39:25;;;;;;;3.55;2.85;;;;;;;25.22;50.96;98455.16;5078379;28;20079;-78
2023/07/25 10:42:15;;;;;;;3.92;2.70;;;;;;;24.59;51.60;98461.13;5079874;28;20593;-79
2023/07/25 10:44:59;;;;;;;3.40;2.55;;;;;;;25.07;50.56;98470.56;5078865;28;20100;-81
2023/07/25 10:47:45;;;;;;;3.50;2.60;;;;;;;24.65;51.44;98470.66;5080856;28;20035;-78
2023/07/25 10:50:44;;;;;;;4.00;2.53;;;;;;;24.83;52.04;98470.84;5081472;28;20055;-79
2023/07/25 10:53:33;;;;;;;2.38;2.17;;;;;;;26.18;50.37;98456.75;5078818;28;20039;-79
2023/07/25 10:56:17;;;;;;;6.82;2.92;;;;;;;25.67;49.87;98463.19;5107371;27;20078;-79
2023/07/25 10:59:08;;;;;;;5.85;2.30;;;;;;;26.31;50.26;98461.19;5081038;28;20062;-79
2023/07/25 11:01:52;;;;;;;4.72;2.65;;;;;;;26.46;49.78;98462.66;5080617;28;20101;-79
2023/07/25 11:04:36;;;;;;;2.67;2.10;;;;;;;26.06;50.58;98474.25;5080843;28;20038;-79
2023/07/25 11:07:20;;;;;;;4.30;2.45;;;;;;;24.55;51.61;98470.88;5081410;28;20141;-78
2023/07/25 11:10:05;;;;;;;2.20;2.00;;;;;;;23.92;52.97;98481.22;5074787;28;20555;-78
2023/07/25 11:12:52;;;;;;;3.78;2.05;;;;;;;23.61;52.68;98473.75;5076126;28;20062;-79
2023/07/25 11:15:36;;;;;;;2.70;2.50;;;;;;;23.98;53.53;98479.22;5078693;28;20386;-78
2023/07/25 11:18:19;;;;;;;2.83;2.33;;;;;;;24.81;53.36;98467.66;5079025;28;20059;-77
2023/07/25 11:21:05;;;;;;;3.13;2.70;;;;;;;23.76;55.31;98478.81;5077322;28;20402;-78
2023/07/25 11:24:02;;;;;;;4.57;2.50;;;;;;;23.70;55.53;98480.00;5074260;28;20180;-78
2023/07/25 11:26:46;;;;;;;4.68;2.60;;;;;;;24.28;54.83;98483.22;5082087;28;20039;-79
2023/07/25 11:29:30;;;;;;;5.28;2.40;;;;;;;24.43;54.47;98497.44;5076016;28;20035;-78
2023/07/25 11:32:14;;;;;;;2.97;2.25;;;;;;;24.55;54.03;98486.97;5073853;28;20114;-81
2023/07/25 11:35:00;;;;;;;5.35;2.50;;;;;;;24.86;52.34;98483.66;5075963;28;20085;-77
2023/07/25 11:37:46;;;;;;;3.03;2.60;;;;;;;25.15;52.64;98490.50;5074852;28;20157;-80
2023/07/25 11:40:31;;;;;;;3.78;2.47;;;;;;;25.48;52.54;98479.53;5079346;28;20051;-78
2023/07/25 11:43:16;;;;;;;3.20;2.90;;;;;;;26.14;51.64;98479.94;5080348;28;20055;-81
2023/07/25 11:46:00;;;;;;;5.53;2.90;;;;;;;26.27;51.68;98476.38;5076361;28;20043;-78
2023/07/25 11:48:45;;;;;;;3.63;2.63;;;;;;;26.81;49.49;98478.81;5078985;28;20035;-79
2023/07/25 11:51:30;;;;;;;2.55;2.35;;;;;;;27.34;49.40;98470.72;5078340;28;20102;-80
2023/07/25 11:54:15;;;;;;;2.83;2.45;;;;;;;27.74;48.82;98477.78;5079829;28;20032;-80
2023/07/25 11:57:00;;;;;;;3.60;2.65;;;;;;;26.99;47.74;98470.00;5076358;28;20044;-80
2023/07/25 11:59:53;;;;;;;3.20;2.90;;;;;;;25.39;50.33;98475.97;5076925;28;20157;-80
2023/07/25 12:02:41;;;;;;;3.13;2.60;;;;;;;25.84;50.49;98477.78;5080176;28;20443;-79
2023/07/25 12:05:30;;;;;;;2.92;2.60;;;;;;;25.77;51.94;98474.75;5077545;28;20063;-79
2023/07/25 12:08:33;;;;;;;5.05;2.70;;;;;;;24.62;51.48;98483.88;5079261;28;20146;-79
2023/07/25 12:11:17;;;;;;;3.50;2.70;;;;;;;25.18;51.58;98489.91;5074303;28;20047;-78
2023/07/25 12:14:01;;;;;;;2.95;2.75;;;;;;;26.13;50.87;98467.59;5078562;28;20055;-79
2023/07/25 12:16:46;;;;;;;6.35;2.75;;;;;;;26.01;50.28;98471.69;5082471;28;20034;-78
2023/07/25 12:19:33;;;;;;;3.05;2.75;;;;;;;26.70;50.75;98465.97;5082378;28;20051;-79
2023/07/25 12:22:18;;;;;;;4.47;2.88;;;;;;;26.77;49.72;98487.84;5084452;28;20050;-79
2023/07/25 12:25:05;;;;;;;2.97;2.60;;;;;;;25.12;50.34;98483.03;5081768;28;20191;-79
2023/07/25 12:27:53;;;;;;;2.80;2.60;;;;;;;25.88;49.43;98488.72;5078896;28;20539;-79
2023/07/25 12:30:37;;;;;;;5.07;2.75;;;;;;;25.53;47.71;98486.66;5078088;28;20093;-79
2023/07/25 12:33:21;;;;;;;3.83;3.08;;;;;;;25.67;47.29;98473.13;5080440;28;20039;-79
2023/07/25 12:36:05;;;;;;;3.15;2.70;;;;;;;25.63;48.92;98478.31;5083041;28;20044;-79
2023/07/25 12:38:50;;;;;;;2.97;2.58;;;;;;;25.86;50.06;98477.50;5084681;28;20382;-79
2023/07/25 12:41:34;;;;;;;3.42;2.80;;;;;;;25.44;50.53;98483.09;5082365;28;20047;-79
2023/07/25 12:44:18;;;;;;;2.85;2.60;;;;;;;26.63;48.95;98480.72;5081764;28;20144;-79
2023/07/25 12:47:04;;;;;;;3.33;3.00;;;;;;;26.92;48.22;98481.22;5081474;28;20059;-79
2023/07/25 12:49:48;;;;;;;2.80;2.60;;;;;;;26.05;48.31;98474.56;5081101;28;20115;-79
2023/07/25 12:52:32;;;;;;;2.70;2.50;;;;;;;24.98;50.25;98479.66;5083988;28;20555;-79
2023/07/25 12:55:18;;;;;;;2.50;2.30;;;;;;;25.32;48.87;98475.59;5083687;28;20051;-79
2023/07/25 12:58:02;;;;;;;5.25;2.63;;;;;;;25.23;48.90;98487.09;5080972;28;20178;-79